CheckWX is a tool to help pilots better visualize weather data.  It is not intended as a substitute for an official pre-flight weather briefing.

05:08:19 UTC

KDUJ METAR
Dubois Regional Airport
Dubois, Pennsylvania, USA
Current

1 hour ago

KDUJ 280353Z AUTO 25018G25KT 6SM -SN FEW024 BKN030 OVC038 M07/M11 A2978 RMK AO2 SNB37 SLP112 P0000 T10721111
Observed
Feb-28 @ 03:53 UTC
Wind
  • 250° at 18 KTS
  • Gusting to 25 KTS
Visibility
6 SM
Flight Rules
MVFR
Conditions
Light Snow
Cloud Levels
  • Few at 2,400' AGL
  • Broken at 3,000' AGL
  • Overcast at 3,800' AGL
Temperature
-7°C / 19°F
Dewpoint
-11°C / 12°F
Humidity
73%
Altimeter
29.78" Hg
Pressure
1008.42 hPa
Current Rain
0.01"
Previous

1 hour ago

KDUJ 280343Z AUTO 26017G23KT 3SM -SN BKN025 OVC030 M07/M11 A2978 RMK AO2 SNB37 P0000 T10671111
Observed
Feb-28 @ 03:43 UTC
Wind
  • 260° at 17 KTS
  • Gusting to 23 KTS
Visibility
3 SM
Flight Rules
MVFR
Conditions
Light Snow
Cloud Levels
  • Broken at 2,500' AGL
  • Overcast at 3,000' AGL
Temperature
-7°C / 19°F
Dewpoint
-11°C / 12°F
Humidity
73%
Altimeter
29.78" Hg
Pressure
1008.42 hPa
Current Rain
0.01"
Previous

2 hours ago

KDUJ 280302Z AUTO 26014G22KT 5SM HZ FEW016 SCT032 BKN065 M07/M12 A2979 RMK AO2 T10671117
Observed
Feb-28 @ 03:02 UTC
Wind
  • 260° at 14 KTS
  • Gusting to 22 KTS
Visibility
5 SM
Flight Rules
MVFR
Conditions
Haze
Cloud Levels
  • Few at 1,600' AGL
  • Scattered at 3,200' AGL
  • Broken at 6,500' AGL
Temperature
-7°C / 19°F
Dewpoint
-12°C / 10°F
Humidity
68%
Altimeter
29.79" Hg
Pressure
1008.82 hPa